Time;durP1;ratioP1;P1;durP2;ratioP2;P2;SDS_P1;SDS_P2;PMS_P1;PMS_P2;Temp;Humidity;BMP_temperature;BMP_pressure;BME280_temperature;BME280_humidity;BME280_pressure;Samples;Min_cycle;Max_cycle;Signal;HPM_P1;HPM_P2
2021/03/13 00:01:05;;;;;;;295.12;154.90;;;;;;;1.84;72.94;94075.51;1799869;79;21151;-61
2021/03/13 00:03:33;;;;;;;300.30;158.35;;;;;;;1.91;72.91;94084.89;1799872;79;21060;-61
2021/03/13 00:06:01;;;;;;;283.90;151.70;;;;;;;1.97;72.69;94087.34;1799992;79;21446;-60
2021/03/13 00:08:30;;;;;;;297.12;155.90;;;;;;;2.04;72.63;94080.45;1799826;79;21197;-61
2021/03/13 00:10:58;;;;;;;293.65;157.22;;;;;;;2.10;72.23;94074.77;1799803;79;21128;-61
2021/03/13 00:13:27;;;;;;;279.80;149.72;;;;;;;2.14;72.12;94075.48;1799865;78;21132;-62
2021/03/13 00:15:56;;;;;;;285.50;154.27;;;;;;;2.15;71.94;94065.56;1799783;79;21102;-61
2021/03/13 00:18:24;;;;;;;280.52;150.27;;;;;;;2.17;71.88;94066.52;1799854;79;21135;-61
2021/03/13 00:20:52;;;;;;;282.23;148.28;;;;;;;2.22;71.91;94074.19;1799847;79;21072;-61
2021/03/13 00:23:20;;;;;;;265.43;141.45;;;;;;;2.25;71.48;94067.36;1799773;78;21092;-60
2021/03/13 00:25:48;;;;;;;254.18;135.75;;;;;;;2.20;71.44;94062.98;1784310;79;21135;-61
2021/03/13 00:28:16;;;;;;;252.15;140.68;;;;;;;2.16;71.49;94067.09;1799826;78;21123;-61
2021/03/13 00:30:46;;;;;;;294.57;153.90;;;;;;;2.15;71.35;94072.34;1799872;79;21056;-61
2021/03/13 00:33:22;;;;;;;296.00;155.22;;;;;;;2.06;71.39;94075.39;1799857;79;21244;-61
2021/03/13 00:35:52;;;;;;;281.85;151.78;;;;;;;1.93;71.85;94069.76;1799785;79;21128;-62
2021/03/13 00:38:21;;;;;;;293.77;153.72;;;;;;;1.85;72.13;94068.91;1799798;79;21477;-61
2021/03/13 00:40:50;;;;;;;291.25;156.40;;;;;;;1.75;72.51;94057.64;1799883;79;21486;-62
2021/03/13 00:43:17;;;;;;;303.62;158.80;;;;;;;1.81;73.05;94060.81;1799881;79;21148;-61
2021/03/13 00:45:48;;;;;;;279.00;149.35;;;;;;;1.92;73.11;94064.16;1799911;79;21588;-60
2021/03/13 00:48:17;;;;;;;286.32;155.37;;;;;;;2.04;72.96;94058.76;1799785;78;21147;-61
2021/03/13 00:50:45;;;;;;;287.88;150.93;;;;;;;2.14;72.67;94061.92;1784244;79;21124;-63
2021/03/13 00:53:15;;;;;;;298.00;154.78;;;;;;;2.19;72.32;94064.16;1799927;79;21387;-61
2021/03/13 00:55:43;;;;;;;324.60;168.68;;;;;;;2.20;71.91;94061.05;1799945;78;21501;-61
2021/03/13 00:58:13;;;;;;;320.20;167.82;;;;;;;2.13;72.00;94061.14;1799707;79;21360;-59
2021/03/13 01:00:42;;;;;;;301.15;158.82;;;;;;;2.13;72.01;94060.39;1799702;79;21127;-61
2021/03/13 01:03:12;;;;;;;292.55;155.60;;;;;;;2.12;71.87;94065.03;1800021;79;21071;-61
2021/03/13 01:05:41;;;;;;;270.80;143.62;;;;;;;2.03;71.95;94057.23;1800008;78;21057;-61
2021/03/13 01:08:11;;;;;;;244.28;133.70;;;;;;;1.97;72.06;94053.45;1800006;79;21088;-61
2021/03/13 01:10:40;;;;;;;248.13;137.03;;;;;;;1.89;72.13;94050.64;1798995;79;21202;-61
2021/03/13 01:13:10;;;;;;;263.60;141.70;;;;;;;1.82;72.64;94039.91;1799851;78;21152;-61
2021/03/13 01:15:40;;;;;;;248.32;135.20;;;;;;;1.89;72.83;94034.38;1800004;78;21069;-61
2021/03/13 01:18:10;;;;;;;245.37;135.88;;;;;;;1.95;72.74;94032.75;1799951;79;21065;-62
2021/03/13 01:20:39;;;;;;;260.73;145.12;;;;;;;2.02;72.72;94040.20;1800020;79;21132;-61
2021/03/13 01:23:07;;;;;;;241.95;128.42;;;;;;;2.13;72.66;94042.75;1799981;79;21318;-61
2021/03/13 01:25:35;;;;;;;263.23;139.95;;;;;;;2.20;72.24;94042.64;1799923;79;21171;-61
2021/03/13 01:28:04;;;;;;;268.00;145.38;;;;;;;2.15;72.02;94043.86;1799966;79;21057;-61
2021/03/13 01:30:32;;;;;;;258.95;142.53;;;;;;;2.05;72.10;94042.09;1800069;79;21493;-61
2021/03/13 01:33:01;;;;;;;260.93;142.87;;;;;;;2.02;72.23;94051.62;1800009;79;21036;-61
2021/03/13 01:35:29;;;;;;;250.90;135.85;;;;;;;2.02;72.42;94051.05;1799981;79;21236;-62
2021/03/13 01:37:57;;;;;;;249.90;137.70;;;;;;;2.02;72.21;94052.41;1799715;78;21088;-61
2021/03/13 01:40:25;;;;;;;265.77;143.90;;;;;;;2.02;72.26;94050.27;1799968;79;21108;-61
2021/03/13 01:42:53;;;;;;;224.70;119.02;;;;;;;1.97;72.35;94044.71;1799946;79;21037;-61
2021/03/13 01:45:23;;;;;;;227.80;129.80;;;;;;;1.95;72.42;94043.00;1799859;79;21053;-61
2021/03/13 01:47:54;;;;;;;225.93;126.80;;;;;;;1.90;72.53;94042.11;1799983;78;21311;-60
2021/03/13 01:50:23;;;;;;;221.82;127.45;;;;;;;1.89;72.67;94035.73;1799896;79;21088;-61
2021/03/13 01:52:52;;;;;;;244.45;132.85;;;;;;;1.87;72.83;94034.02;1784475;79;21056;-61
2021/03/13 01:55:22;;;;;;;227.35;127.92;;;;;;;1.92;73.08;94039.00;1784834;79;21081;-62
2021/03/13 01:57:51;;;;;;;246.57;135.32;;;;;;;1.95;72.87;94034.86;1799824;79;21080;-61
2021/03/13 02:00:22;;;;;;;257.32;141.47;;;;;;;1.97;72.63;94045.31;1799963;78;21177;-61
2021/03/13 02:02:52;;;;;;;243.93;133.70;;;;;;;1.91;72.75;94036.86;1799769;79;21541;-60
2021/03/13 02:05:29;;;;;;;263.62;141.75;;;;;;;1.94;72.90;94046.89;1799982;78;21081;-62
2021/03/13 02:08:31;;;;;;;264.12;143.57;;;;;;;1.94;72.68;94045.53;1799920;79;21128;-62
2021/03/13 02:11:24;;;;;;;256.77;138.40;;;;;;;1.93;72.93;94038.58;1784753;79;21041;-61
2021/03/13 02:14:36;;;;;;;254.32;133.05;;;;;;;1.96;72.70;94034.29;1799999;78;22124;-61
2021/03/13 02:17:42;;;;;;;245.07;134.27;;;;;;;1.92;72.75;94036.29;1799683;79;21156;-61
2021/03/13 02:20:33;;;;;;;252.90;135.93;;;;;;;1.87;73.07;94032.66;1799897;78;21064;-61
2021/03/13 02:23:02;;;;;;;230.07;127.30;;;;;;;1.93;73.25;94031.05;1799280;79;21057;-60
2021/03/13 02:26:27;;;;;;;232.25;130.12;;;;;;;1.96;72.80;94030.97;1799983;79;21136;-60
2021/03/13 02:29:28;;;;;;;232.20;126.10;;;;;;;1.89;72.73;94041.15;1799058;79;21375;-61
2021/03/13 02:31:59;;;;;;;230.55;129.03;;;;;;;1.88;73.01;94051.81;1799879;79;21121;-60
2021/03/13 02:34:30;;;;;;;218.63;122.80;;;;;;;1.89;72.83;94051.42;1800051;79;21588;-61
2021/03/13 02:37:01;;;;;;;220.40;121.55;;;;;;;1.88;72.70;94058.02;1799920;79;21132;-60
2021/03/13 02:39:29;;;;;;;217.95;121.82;;;;;;;1.84;72.79;94053.81;1782085;79;21081;-62
2021/03/13 02:42:02;;;;;;;211.90;115.50;;;;;;;1.84;73.09;94062.73;1797423;79;21432;-62
2021/03/13 02:44:33;;;;;;;218.78;116.25;;;;;;;1.85;72.94;94050.70;1797355;79;21057;-62
2021/03/13 02:47:04;;;;;;;213.80;117.75;;;;;;;1.79;72.97;94046.15;1797383;79;21580;-61
2021/03/13 02:49:34;;;;;;;265.87;137.45;;;;;;;1.79;73.55;94048.25;1797127;78;21089;-61
2021/03/13 02:52:06;;;;;;;253.50;136.40;;;;;;;1.80;73.05;94044.97;1797004;78;21069;-61
2021/03/13 02:54:36;;;;;;;244.03;132.32;;;;;;;1.76;73.47;94049.68;1797484;78;21541;-62
2021/03/13 02:57:06;;;;;;;217.62;121.22;;;;;;;1.83;73.35;94048.22;1781922;79;21513;-60
2021/03/13 02:59:35;;;;;;;265.00;130.97;;;;;;;1.84;73.07;94047.82;1797386;78;21089;-62
2021/03/13 03:02:07;;;;;;;214.30;116.57;;;;;;;1.77;73.12;94043.08;1797478;79;21923;-61
2021/03/13 03:04:37;;;;;;;212.80;118.35;;;;;;;1.73;73.20;94047.01;1797391;79;21113;-61
2021/03/13 03:07:05;;;;;;;207.47;117.50;;;;;;;1.66;73.22;94053.89;1797369;79;21316;-61
2021/03/13 03:09:33;;;;;;;217.90;119.20;;;;;;;1.68;73.62;94065.84;1797269;79;21096;-62
2021/03/13 03:12:02;;;;;;;208.05;112.32;;;;;;;1.75;73.58;94063.06;1797346;79;21069;-61
2021/03/13 03:14:31;;;;;;;217.70;117.70;;;;;;;1.81;73.39;94062.77;1797365;78;21081;-61
2021/03/13 03:17:01;;;;;;;226.12;124.45;;;;;;;1.84;73.31;94069.52;1797417;79;21112;-62
2021/03/13 03:19:32;;;;;;;226.25;124.20;;;;;;;1.87;73.12;94067.34;1797446;79;22179;-62
2021/03/13 03:22:02;;;;;;;210.72;117.70;;;;;;;1.82;72.97;94054.81;1796819;79;21112;-60
2021/03/13 03:24:30;;;;;;;203.18;113.00;;;;;;;1.77;73.28;94059.34;1797372;79;21181;-61
2021/03/13 03:26:59;;;;;;;211.35;116.70;;;;;;;1.79;73.08;94062.42;1797365;78;21139;-61
2021/03/13 03:29:28;;;;;;;218.17;115.57;;;;;;;1.73;72.90;94055.31;1797482;78;21563;-60
2021/03/13 03:31:56;;;;;;;203.73;115.32;;;;;;;1.66;73.21;94054.64;1797441;79;22182;-61
2021/03/13 03:34:25;;;;;;;185.57;106.43;;;;;;;1.65;73.30;94055.81;1797331;78;21147;-61
2021/03/13 03:36:54;;;;;;;187.62;105.72;;;;;;;1.66;73.44;94051.18;1797313;79;21118;-62
2021/03/13 03:39:22;;;;;;;198.50;111.45;;;;;;;1.68;73.39;94044.76;1798840;79;21923;-61
2021/03/13 03:41:53;;;;;;;194.07;112.05;;;;;;;1.70;73.40;94044.52;1799900;79;21049;-61
2021/03/13 03:44:26;;;;;;;197.10;111.90;;;;;;;1.74;73.33;94045.26;1799941;78;21259;-61
2021/03/13 03:46:58;;;;;;;197.40;111.77;;;;;;;1.76;73.25;94042.91;1798881;79;21536;-59
2021/03/13 03:49:27;;;;;;;210.45;113.85;;;;;;;1.72;73.03;94044.88;1799862;78;21111;-61
2021/03/13 03:51:58;;;;;;;217.15;118.57;;;;;;;1.71;73.17;94041.98;1798014;79;21180;-61
2021/03/13 03:54:26;;;;;;;207.62;114.52;;;;;;;1.74;73.18;94050.68;1799911;79;21085;-61
2021/03/13 03:56:54;;;;;;;187.72;107.37;;;;;;;1.75;73.35;94042.72;1799814;79;21438;-62
2021/03/13 03:59:22;;;;;;;179.30;105.03;;;;;;;1.79;73.34;94037.41;1799787;79;21517;-61
2021/03/13 04:01:52;;;;;;;161.52;98.17;;;;;;;1.80;73.11;94040.91;1799834;79;21092;-62
2021/03/13 04:04:22;;;;;;;151.60;92.27;;;;;;;1.81;72.99;94039.73;1799994;79;21477;-62
2021/03/13 04:06:51;;;;;;;149.18;89.10;;;;;;;1.79;72.95;94044.80;1799909;79;21068;-61
2021/03/13 04:09:21;;;;;;;151.05;87.62;;;;;;;1.80;72.85;94039.55;1799911;79;21338;-62
2021/03/13 04:11:50;;;;;;;161.10;93.85;;;;;;;1.76;72.70;94046.97;1799827;79;21132;-61
2021/03/13 04:14:18;;;;;;;173.15;92.55;;;;;;;1.69;72.82;94046.30;1799836;79;21156;-60
2021/03/13 04:16:46;;;;;;;171.80;94.95;;;;;;;1.60;73.04;94044.08;1799909;78;21143;-62
2021/03/13 04:19:14;;;;;;;156.32;91.50;;;;;;;1.56;73.29;94042.59;1799986;79;21140;-61
2021/03/13 04:21:44;;;;;;;161.43;92.12;;;;;;;1.55;73.60;94048.61;1799970;79;21473;-62
2021/03/13 04:24:13;;;;;;;170.07;99.00;;;;;;;1.59;73.58;94057.45;1784417;79;21092;-61
2021/03/13 04:26:43;;;;;;;183.60;101.50;;;;;;;1.60;73.49;94057.63;1799805;79;21041;-61
2021/03/13 04:29:12;;;;;;;170.95;94.22;;;;;;;1.54;73.54;94059.84;1799873;79;21025;-62
2021/03/13 04:31:40;;;;;;;170.77;96.42;;;;;;;1.47;73.60;94062.05;1799952;79;21048;-61
2021/03/13 04:34:08;;;;;;;171.47;95.17;;;;;;;1.38;73.93;94055.58;1799858;78;21204;-62
2021/03/13 04:36:37;;;;;;;178.35;100.12;;;;;;;1.31;74.10;94057.03;1799815;79;21143;-62
2021/03/13 04:39:06;;;;;;;177.27;102.65;;;;;;;1.27;74.31;94055.71;1799654;78;21116;-61
2021/03/13 04:41:34;;;;;;;182.88;101.95;;;;;;;1.30;74.61;94058.20;1799883;79;21093;-61
2021/03/13 04:44:02;;;;;;;188.47;110.32;;;;;;;1.33;74.45;94062.21;1799877;79;21057;-60
2021/03/13 04:46:35;;;;;;;191.62;106.60;;;;;;;1.35;74.57;94062.57;1784563;79;22206;-62
2021/03/13 04:49:07;;;;;;;193.82;106.10;;;;;;;1.39;74.32;94069.31;1799913;78;21478;-61
2021/03/13 04:51:35;;;;;;;197.10;109.50;;;;;;;1.34;74.22;94067.81;1800099;79;21219;-62
2021/03/13 04:54:04;;;;;;;190.92;102.40;;;;;;;1.29;74.27;94066.91;1799832;79;21412;-61
2021/03/13 04:56:32;;;;;;;186.65;100.92;;;;;;;1.28;74.73;94073.50;1799962;79;21474;-62
2021/03/13 04:59:00;;;;;;;183.95;97.53;;;;;;;1.35;74.55;94081.53;1799803;79;21376;-62
2021/03/13 05:01:28;;;;;;;179.95;105.90;;;;;;;1.34;74.42;94067.81;1799769;79;21137;-61
2021/03/13 05:03:56;;;;;;;186.20;104.78;;;;;;;1.37;74.50;94071.09;1799824;78;21100;-61
2021/03/13 05:06:24;;;;;;;176.02;100.12;;;;;;;1.40;74.36;94074.34;1799805;79;21053;-62
2021/03/13 05:08:53;;;;;;;173.65;95.65;;;;;;;1.46;74.38;94074.06;1799842;79;21049;-60
2021/03/13 05:11:21;;;;;;;151.50;88.35;;;;;;;1.53;74.09;94072.61;1784330;79;21318;-63
2021/03/13 05:13:49;;;;;;;150.82;86.57;;;;;;;1.54;73.76;94072.79;1799843;78;21131;-61
2021/03/13 05:16:17;;;;;;;142.57;81.30;;;;;;;1.53;73.53;94072.61;1799801;78;21096;-61
2021/03/13 05:18:45;;;;;;;140.03;82.88;;;;;;;1.47;73.67;94075.59;1799748;79;21187;-61
2021/03/13 05:21:14;;;;;;;159.93;91.45;;;;;;;1.44;73.93;94070.99;1799838;79;21045;-60
2021/03/13 05:23:43;;;;;;;163.77;93.30;;;;;;;1.48;73.91;94066.29;1799854;79;21146;-61
2021/03/13 05:26:11;;;;;;;156.65;91.70;;;;;;;1.53;74.20;94065.84;1799777;79;21072;-61
2021/03/13 05:28:39;;;;;;;155.60;91.95;;;;;;;1.63;74.04;94064.16;1799817;79;21088;-61
2021/03/13 05:31:07;;;;;;;147.05;82.80;;;;;;;1.71;74.01;94069.09;1799776;79;21564;-61
2021/03/13 05:33:36;;;;;;;143.57;84.52;;;;;;;1.81;73.96;94074.38;1799821;79;21232;-61
2021/03/13 05:36:06;;;;;;;157.78;91.55;;;;;;;1.90;73.82;94071.16;1799851;79;21132;-61
2021/03/13 05:38:33;;;;;;;149.25;88.67;;;;;;;2.01;73.78;94075.86;1799593;79;21088;-61
2021/03/13 05:41:01;;;;;;;142.60;83.60;;;;;;;2.12;73.57;94070.45;1799858;78;21474;-61
2021/03/13 05:43:29;;;;;;;151.85;88.00;;;;;;;2.21;73.12;94067.23;1799916;79;21104;-62
2021/03/13 05:45:56;;;;;;;155.43;91.32;;;;;;;2.15;72.94;94060.73;1799963;79;21112;-61
2021/03/13 05:48:24;;;;;;;148.65;86.50;;;;;;;2.10;73.01;94072.06;1799945;78;21370;-60
2021/03/13 05:50:53;;;;;;;145.80;87.42;;;;;;;2.08;73.18;94064.32;1799865;79;21065;-62
2021/03/13 05:53:21;;;;;;;150.45;85.92;;;;;;;2.12;73.31;94062.92;1799940;79;21096;-61
2021/03/13 05:55:54;;;;;;;145.35;81.97;;;;;;;2.21;73.38;94064.52;1784694;79;21179;-61
2021/03/13 05:58:22;;;;;;;137.92;81.28;;;;;;;2.27;73.28;94062.86;1785139;79;21053;-61
2021/03/13 06:00:50;;;;;;;150.18;89.40;;;;;;;2.28;73.19;94061.69;1800028;79;22101;-61
2021/03/13 06:03:18;;;;;;;158.15;92.40;;;;;;;2.28;73.34;94052.97;1799979;79;21148;-62
2021/03/13 06:05:46;;;;;;;140.20;82.55;;;;;;;2.32;73.37;94058.35;1799944;79;21101;-61
2021/03/13 06:08:15;;;;;;;120.05;74.37;;;;;;;2.40;73.48;94059.19;1800046;79;21505;-61
2021/03/13 06:10:43;;;;;;;136.70;82.85;;;;;;;2.50;73.03;94060.20;1800036;79;21485;-61
2021/03/13 06:13:11;;;;;;;154.47;89.13;;;;;;;2.46;73.08;94060.25;1799930;78;21397;-61
2021/03/13 06:15:41;;;;;;;139.57;85.10;;;;;;;2.51;73.01;94063.09;1799903;79;21068;-61
2021/03/13 06:18:09;;;;;;;133.47;81.70;;;;;;;2.54;73.04;94069.05;1799906;78;21125;-61
2021/03/13 06:20:38;;;;;;;129.38;79.70;;;;;;;2.60;72.89;94068.17;1799876;79;21124;-62
2021/03/13 06:23:14;;;;;;;139.65;85.45;;;;;;;2.66;72.82;94072.55;1799954;79;21136;-62
2021/03/13 06:25:44;;;;;;;138.50;82.90;;;;;;;2.72;72.65;94073.59;1799908;79;21076;-61
2021/03/13 06:28:19;;;;;;;136.70;79.20;;;;;;;2.75;72.26;94074.91;1799810;79;21083;-62
2021/03/13 06:30:50;;;;;;;140.50;81.72;;;;;;;2.77;72.00;94069.83;1799922;79;21583;-62
2021/03/13 06:33:33;;;;;;;132.00;79.10;;;;;;;2.78;71.76;94067.86;1799884;79;21101;-61
2021/03/13 06:36:06;;;;;;;130.78;76.28;;;;;;;2.78;71.59;94074.07;1799928;79;21081;-62
2021/03/13 06:38:37;;;;;;;139.22;75.75;;;;;;;2.78;71.49;94070.58;1799377;78;22090;-61
2021/03/13 06:41:18;;;;;;;126.27;74.12;;;;;;;2.80;71.44;94066.27;1812400;78;21192;-61
2021/03/13 06:43:46;;;;;;;119.70;71.90;;;;;;;2.83;71.48;94068.77;1813210;78;21168;-61
2021/03/13 06:46:16;;;;;;;125.70;73.70;;;;;;;2.85;71.53;94063.08;1764382;81;21070;-63
2021/03/13 06:48:53;;;;;;;127.27;74.90;;;;;;;2.97;71.50;94067.92;1764463;81;21076;-62
2021/03/13 06:51:30;;;;;;;117.57;72.87;;;;;;;3.13;71.37;94073.45;1764393;81;21199;-61
2021/03/13 06:54:13;;;;;;;83.52;52.17;;;;;;;3.32;71.31;94063.77;1764605;80;21158;-62
2021/03/13 06:56:47;;;;;;;113.85;68.45;;;;;;;3.50;70.79;94054.11;1764456;80;21050;-64
2021/03/13 06:59:29;;;;;;;93.87;57.90;;;;;;;3.61;70.50;94058.14;1764600;81;21520;-66
2021/03/13 07:02:03;;;;;;;87.88;52.08;;;;;;;3.68;70.14;94063.42;1764543;81;21117;-61
2021/03/13 07:04:43;;;;;;;122.28;63.83;;;;;;;3.66;69.96;94061.72;1764618;81;22264;-62
2021/03/13 07:07:30;;;;;;;157.78;76.30;;;;;;;3.56;69.78;94066.80;1764445;80;21506;-62
2021/03/13 07:09:59;;;;;;;131.27;61.30;;;;;;;3.52;70.19;94067.44;1764515;81;21154;-62
2021/03/13 07:12:36;;;;;;;109.70;58.00;;;;;;;3.61;70.37;94064.94;1764588;80;21573;-62
2021/03/13 07:15:23;;;;;;;105.97;58.02;;;;;;;3.70;70.32;94071.17;1764642;80;21088;-62
2021/03/13 07:17:55;;;;;;;100.40;59.75;;;;;;;3.72;70.09;94070.91;1764473;81;21214;-63
2021/03/13 07:20:28;;;;;;;110.10;67.87;;;;;;;3.82;69.98;94075.95;1764669;80;21091;-62
2021/03/13 07:22:57;;;;;;;93.78;57.67;;;;;;;3.96;70.03;94074.31;1764555;81;21217;-62
2021/03/13 07:25:27;;;;;;;98.97;64.37;;;;;;;4.12;69.82;94066.97;1764608;81;21646;-62
2021/03/13 07:27:57;;;;;;;84.52;53.80;;;;;;;4.20;69.47;94065.61;1764485;80;21525;-62
2021/03/13 07:30:26;;;;;;;92.67;59.95;;;;;;;4.21;69.09;94067.14;1764493;81;21249;-62
2021/03/13 07:33:01;;;;;;;76.75;47.70;;;;;;;4.14;68.99;94072.75;1764530;81;21502;-63
2021/03/13 07:35:34;;;;;;;85.40;53.05;;;;;;;4.16;69.01;94071.73;1764967;80;21099;-62
2021/03/13 07:38:04;;;;;;;64.17;43.52;;;;;;;4.25;68.86;94058.30;1764470;80;21066;-62
2021/03/13 07:40:34;;;;;;;60.05;39.30;;;;;;;4.40;68.50;94062.84;1764314;81;21087;-63
2021/03/13 07:43:02;;;;;;;59.90;37.10;;;;;;;4.52;68.37;94060.21;1764504;81;21248;-62
2021/03/13 07:45:31;;;;;;;70.47;45.70;;;;;;;4.68;68.07;94053.41;1764450;80;21500;-63
2021/03/13 07:47:59;;;;;;;54.15;36.33;;;;;;;4.82;67.72;94047.59;1764418;81;21161;-62
2021/03/13 07:50:27;;;;;;;63.48;38.85;;;;;;;5.00;67.13;94050.63;1764473;81;21166;-62
2021/03/13 07:52:55;;;;;;;76.60;48.05;;;;;;;5.14;66.76;94053.00;1764481;81;21585;-64
2021/03/13 07:55:24;;;;;;;68.00;43.05;;;;;;;5.25;66.54;94052.89;1764499;81;21260;-63
2021/03/13 07:57:52;;;;;;;46.23;31.77;;;;;;;5.38;66.33;94046.15;1764369;81;21082;-64
2021/03/13 08:00:32;;;;;;;47.78;31.55;;;;;;;5.53;65.78;94037.72;1764538;81;21067;-63
2021/03/13 08:02:59;;;;;;;35.13;23.67;;;;;;;5.75;64.99;94039.43;1759135;80;21227;-62
2021/03/13 08:05:28;;;;;;;19.87;14.40;;;;;;;5.94;63.85;94039.13;1768830;80;21112;-62
2021/03/13 08:07:59;;;;;;;22.52;15.68;;;;;;;6.10;62.63;94039.02;1680022;82;23512;-62
2021/03/13 08:10:49;;;;;;;23.57;17.90;;;;;;;6.26;61.96;94026.05;1777768;80;21135;-63
2021/03/13 08:13:32;;;;;;;24.45;16.73;;;;;;;6.42;61.81;94023.20;1774725;80;21623;-62
2021/03/13 08:16:20;;;;;;;33.70;23.95;;;;;;;6.63;61.56;94029.95;1755772;80;21123;-62
2021/03/13 08:18:50;;;;;;;34.58;22.60;;;;;;;6.84;60.95;94014.23;1754180;81;21239;-62
2021/03/13 08:21:24;;;;;;;32.03;21.57;;;;;;;6.99;61.03;94020.77;1756091;81;21217;-63
2021/03/13 08:24:00;;;;;;;31.82;22.80;;;;;;;7.12;60.24;94011.34;1756104;81;21094;-62
2021/03/13 08:26:40;;;;;;;33.48;22.35;;;;;;;7.23;59.48;94014.45;1755725;80;22480;-62
2021/03/13 08:29:10;;;;;;;35.88;23.00;;;;;;;7.33;59.18;94033.23;1768709;80;21130;-63
2021/03/13 08:31:40;;;;;;;32.08;21.00;;;;;;;7.45;58.71;94031.06;1742688;80;21144;-62
2021/03/13 08:34:23;;;;;;;25.40;17.05;;;;;;;7.61;58.32;94030.11;1762133;80;21298;-62
2021/03/13 08:36:51;;;;;;;31.45;18.42;;;;;;;7.81;56.58;94034.07;1755661;81;21558;-63
2021/03/13 08:39:21;;;;;;;45.85;18.85;;;;;;;8.00;56.52;94034.34;1756019;81;21133;-63
2021/03/13 08:41:57;;;;;;;24.18;15.13;;;;;;;8.14;55.12;94029.71;1752552;80;21126;-62
2021/03/13 08:44:38;;;;;;;39.48;13.78;;;;;;;8.34;52.72;94032.89;1752598;81;21196;-62
2021/03/13 08:47:10;;;;;;;19.90;17.05;;;;;;;8.53;50.93;94029.02;1720552;83;21225;-63
2021/03/13 08:49:50;;;;;;;20.60;15.55;;;;;;;8.84;48.17;94028.95;1740927;80;21095;-62
2021/03/13 08:52:22;;;;;;;13.05;11.60;;;;;;;9.10;47.71;94018.66;1752922;80;21135;-62
2021/03/13 08:54:51;;;;;;;14.60;11.20;;;;;;;9.31;46.66;94017.17;1751812;81;21190;-63
2021/03/13 08:57:31;;;;;;;13.18;11.18;;;;;;;9.50;44.93;94021.45;1750172;82;21169;-64
2021/03/13 09:00:00;;;;;;;13.30;9.65;;;;;;;9.56;45.20;94011.38;1745617;82;22035;-62
2021/03/13 09:02:38;;;;;;;14.35;12.85;;;;;;;9.64;44.57;94003.59;1750390;81;21134;-62
2021/03/13 09:05:14;;;;;;;10.13;9.13;;;;;;;9.65;43.66;94005.11;1751927;81;21191;-63
2021/03/13 09:07:50;;;;;;;18.70;9.60;;;;;;;9.64;43.96;94004.34;1763704;80;21087;-61
2021/03/13 09:10:18;;;;;;;16.45;14.70;;;;;;;9.65;44.14;94018.22;1753501;80;21534;-64
2021/03/13 09:12:47;;;;;;;12.73;10.30;;;;;;;9.66;44.00;94012.13;1750106;80;21740;-63
2021/03/13 09:15:17;;;;;;;8.55;7.58;;;;;;;9.73;43.53;94014.55;1749257;80;21208;-63
2021/03/13 09:17:46;;;;;;;15.10;11.38;;;;;;;9.84;42.18;94036.84;1752838;80;21174;-63
2021/03/13 09:20:17;;;;;;;18.00;8.83;;;;;;;9.90;42.07;94022.62;1752705;80;21201;-62
2021/03/13 09:22:46;;;;;;;7.40;6.72;;;;;;;9.99;42.81;94024.01;1750615;81;21586;-64
2021/03/13 09:25:24;;;;;;;8.45;7.20;;;;;;;10.04;40.75;94026.16;1750162;80;21280;-64
2021/03/13 09:27:52;;;;;;;17.70;7.67;;;;;;;10.06;40.82;94020.95;1750540;81;21110;-63
2021/03/13 09:30:24;;;;;;;14.20;6.92;;;;;;;10.08;41.07;94029.50;1721254;82;21082;-64
2021/03/13 09:32:52;;;;;;;9.23;7.87;;;;;;;10.04;41.24;94013.20;1750515;80;21123;-63
2021/03/13 09:35:25;;;;;;;8.83;6.67;;;;;;;10.04;41.51;94015.16;1750620;81;21066;-63
2021/03/13 09:37:54;;;;;;;12.88;7.15;;;;;;;10.06;41.26;94011.34;1750562;80;21467;-63
2021/03/13 09:40:24;;;;;;;8.73;7.55;;;;;;;10.14;40.71;94016.05;1750414;81;21173;-63
2021/03/13 09:42:54;;;;;;;11.43;7.37;;;;;;;10.27;40.78;94009.77;1750336;80;21098;-63
2021/03/13 09:45:24;;;;;;;13.13;7.00;;;;;;;10.52;41.88;93999.00;1750624;82;21082;-62
2021/03/13 09:47:59;;;;;;;10.45;6.15;;;;;;;10.86;40.40;94005.57;1750550;80;21161;-63
2021/03/13 09:50:32;;;;;;;10.45;5.67;;;;;;;11.17;38.28;94000.48;1750648;82;21195;-64
2021/03/13 09:53:01;;;;;;;5.17;4.67;;;;;;;11.46;38.32;94012.22;1750541;82;21133;-64
2021/03/13 09:55:30;;;;;;;6.50;5.90;;;;;;;11.73;37.41;94004.53;1750628;80;21586;-63
2021/03/13 09:58:01;;;;;;;5.55;4.12;;;;;;;12.04;36.68;94002.11;1750440;80;21115;-64
2021/03/13 10:00:39;;;;;;;10.50;4.25;;;;;;;12.40;34.30;94012.00;1750651;80;21098;-63
2021/03/13 10:03:15;;;;;;;7.35;4.03;;;;;;;12.63;34.74;93998.09;1750573;81;22125;-64
2021/03/13 10:05:47;;;;;;;6.05;3.55;;;;;;;12.77;34.70;94006.98;1750125;80;21551;-63
2021/03/13 10:08:14;;;;;;;4.78;3.52;;;;;;;12.88;33.53;94020.96;1698618;82;21087;-64
2021/03/13 10:10:47;;;;;;;4.72;3.70;;;;;;;13.07;33.21;94024.41;1750488;80;21090;-62
2021/03/13 10:13:17;;;;;;;4.53;3.90;;;;;;;13.15;32.94;94016.48;1721356;82;21068;-64
2021/03/13 10:15:45;;;;;;;4.33;3.60;;;;;;;13.29;33.02;94006.02;1750564;80;21269;-64
2021/03/13 10:18:20;;;;;;;5.60;4.22;;;;;;;13.47;32.17;94016.80;1750434;82;21102;-63
2021/03/13 10:20:53;;;;;;;11.45;4.95;;;;;;;13.60;32.08;94006.17;1750497;80;21126;-64
2021/03/13 10:23:30;;;;;;;4.33;3.72;;;;;;;13.82;32.80;94014.09;1750546;81;21062;-64
2021/03/13 10:26:06;;;;;;;6.90;5.10;;;;;;;14.11;31.58;94015.30;1750604;82;21138;-63
2021/03/13 10:28:36;;;;;;;7.90;5.25;;;;;;;14.36;32.09;94011.81;1750547;81;21201;-63
2021/03/13 10:31:13;;;;;;;7.20;4.90;;;;;;;14.64;30.91;94023.27;1750458;82;21078;-64
2021/03/13 10:33:46;;;;;;;9.98;5.12;;;;;;;14.74;30.72;94014.93;1750578;82;21070;-63
2021/03/13 10:36:16;;;;;;;17.62;14.45;;;;;;;14.83;31.52;94020.28;1750754;82;21073;-63
2021/03/13 10:38:47;;;;;;;12.40;9.65;;;;;;;15.09;30.21;94016.84;1750558;80;21079;-64
2021/03/13 10:41:17;;;;;;;3.50;2.98;;;;;;;15.29;30.03;94018.13;1750453;80;21207;-64
2021/03/13 10:43:45;;;;;;;6.53;3.47;;;;;;;15.41;29.25;94006.48;1750495;80;21094;-63
2021/03/13 10:46:19;;;;;;;18.10;13.50;;;;;;;15.43;28.89;94015.83;1750504;81;21102;-63
2021/03/13 10:48:56;;;;;;;11.25;4.50;;;;;;;15.46;29.46;94012.06;1750485;80;21149;-64
2021/03/13 10:51:36;;;;;;;7.28;5.53;;;;;;;15.54;29.39;94007.55;1750586;82;21078;-63
2021/03/13 10:54:05;;;;;;;8.80;5.00;;;;;;;15.66;29.24;94004.97;1750553;80;21195;-63
2021/03/13 10:56:43;;;;;;;6.50;4.85;;;;;;;15.86;29.30;94014.52;1750435;80;21722;-64
2021/03/13 10:59:10;;;;;;;5.70;4.17;;;;;;;15.93;28.71;94000.80;1750507;82;21050;-63
2021/03/13 11:01:46;;;;;;;17.48;12.93;;;;;;;16.02;28.71;94015.82;1750521;80;21183;-63
2021/03/13 11:04:14;;;;;;;4.62;4.22;;;;;;;16.05;29.06;94012.81;1750529;80;21086;-63
2021/03/13 11:06:42;;;;;;;4.28;3.17;;;;;;;16.27;28.31;94023.97;1750496;80;21383;-63
2021/03/13 11:09:11;;;;;;;4.67;3.27;;;;;;;16.44;27.28;94024.80;1750285;82;21074;-63
2021/03/13 11:11:39;;;;;;;6.95;4.45;;;;;;;16.44;27.52;94024.19;1750425;82;21161;-63
2021/03/13 11:14:09;;;;;;;18.50;15.48;;;;;;;16.38;27.60;94021.27;1750557;82;21146;-64
2021/03/13 11:16:37;;;;;;;9.35;6.17;;;;;;;16.54;27.55;94010.18;1750412;80;21166;-63
2021/03/13 11:19:06;;;;;;;13.93;6.25;;;;;;;16.88;27.58;94005.42;1750390;82;21411;-61
2021/03/13 11:21:35;;;;;;;9.30;6.12;;;;;;;17.05;26.99;94003.37;1750515;82;21252;-64
2021/03/13 11:24:06;;;;;;;14.23;10.15;;;;;;;17.13;27.03;93993.27;1750528;80;21087;-70
2021/03/13 11:26:34;;;;;;;9.65;7.12;;;;;;;17.34;27.52;93994.53;1750551;82;21487;-63
2021/03/13 11:29:02;;;;;;;10.38;6.80;;;;;;;17.58;26.63;93992.70;1750482;82;21070;-64
2021/03/13 11:31:30;;;;;;;7.53;4.83;;;;;;;17.80;26.42;93994.02;1750500;82;21416;-64
2021/03/13 11:33:58;;;;;;;6.35;4.30;;;;;;;17.99;25.55;93997.73;1675035;82;21654;-63
2021/03/13 11:36:25;;;;;;;10.70;5.10;;;;;;;18.07;25.58;93991.77;1750490;80;21428;-63
2021/03/13 11:38:54;;;;;;;4.72;3.15;;;;;;;18.13;25.32;93987.66;1750448;81;21082;-65